EJU47UL LIRN-LICJ
Flight info
| Callsign | EJU47UL |
|---|---|
| Flight time | 0h 41m |
| Altitude | 29000 |
| Route | DELER DCT AMANO DCT ROSAS |
| Aircraft | A319/M-SDE2E3FGIJ1RWXYZ/LB1 |
Departure
| Time | 2026-04-29 14:13 |
|---|---|
| Airport | Naples International Airport (LIRN) |
Arrival
| Time | 2026-04-29 14:54 |
|---|---|
| Airport | Falcone–Borsellino Airport (LICJ) |
| Time | Latitude | Longitude | Altitude | Speed | Heading |
|---|---|---|---|---|---|
| 2026-04-29 13:53 | 40.87838 | 14.28088 | 292 ft | 0 kts | 142° |
| 2026-04-29 13:58 | 40.87845 | 14.28082 | 292 ft | 2 kts | 141° |
| 2026-04-29 13:58 | 40.87857 | 14.28069 | 291 ft | 2 kts | 142° |
| 2026-04-29 13:59 | 40.87868 | 14.28057 | 291 ft | 2 kts | 141° |
| 2026-04-29 13:59 | 40.87880 | 14.28045 | 291 ft | 2 kts | 141° |
| 2026-04-29 13:59 | 40.87891 | 14.28034 | 291 ft | 0 kts | 141° |
| 2026-04-29 13:59 | 40.87897 | 14.28027 | 292 ft | 1 kts | 103° |
| 2026-04-29 14:00 | 40.87896 | 14.28015 | 292 ft | 0 kts | 57° |
| 2026-04-29 14:00 | 40.87892 | 14.28008 | 292 ft | 1 kts | 50° |
| 2026-04-29 14:00 | 40.87891 | 14.28006 | 292 ft | 0 kts | 51° |
| 2026-04-29 14:00 | 40.87891 | 14.28007 | 292 ft | 0 kts | 51° |
| 2026-04-29 14:02 | 40.87891 | 14.28008 | 292 ft | 1 kts | 51° |
| 2026-04-29 14:02 | 40.87903 | 14.28027 | 291 ft | 4 kts | 51° |
| 2026-04-29 14:02 | 40.87929 | 14.28070 | 290 ft | 6 kts | 50° |
| 2026-04-29 14:02 | 40.87961 | 14.28124 | 290 ft | 8 kts | 63° |
| 2026-04-29 14:03 | 40.87959 | 14.28203 | 289 ft | 9 kts | 98° |
| 2026-04-29 14:03 | 40.87951 | 14.28294 | 288 ft | 10 kts | 98° |
| 2026-04-29 14:03 | 40.87940 | 14.28400 | 287 ft | 12 kts | 96° |
| 2026-04-29 14:03 | 40.87974 | 14.28499 | 285 ft | 13 kts | 39° |
| 2026-04-29 14:04 | 40.88041 | 14.28597 | 283 ft | 14 kts | 53° |
| 2026-04-29 14:04 | 40.88106 | 14.28710 | 280 ft | 15 kts | 53° |
| 2026-04-29 14:04 | 40.88177 | 14.28834 | 275 ft | 18 kts | 49° |
| 2026-04-29 14:04 | 40.88256 | 14.28970 | 273 ft | 19 kts | 52° |
| 2026-04-29 14:05 | 40.88342 | 14.29125 | 268 ft | 22 kts | 56° |
| 2026-04-29 14:05 | 40.88438 | 14.29287 | 263 ft | 19 kts | 52° |
| 2026-04-29 14:05 | 40.88517 | 14.29424 | 258 ft | 20 kts | 52° |
| 2026-04-29 14:05 | 40.88608 | 14.29580 | 254 ft | 20 kts | 53° |
| 2026-04-29 14:06 | 40.88686 | 14.29715 | 250 ft | 19 kts | 52° |
| 2026-04-29 14:06 | 40.88776 | 14.29871 | 245 ft | 22 kts | 52° |
| 2026-04-29 14:06 | 40.88864 | 14.30024 | 241 ft | 18 kts | 52° |
| 2026-04-29 14:06 | 40.88937 | 14.30150 | 238 ft | 14 kts | 52° |
| 2026-04-29 14:07 | 40.88994 | 14.30250 | 236 ft | 12 kts | 52° |
| 2026-04-29 14:07 | 40.89041 | 14.30330 | 235 ft | 7 kts | 51° |
| 2026-04-29 14:07 | 40.89048 | 14.30342 | 235 ft | 0 kts | 52° |
| 2026-04-29 14:07 | 40.89052 | 14.30349 | 235 ft | 1 kts | 52° |
| 2026-04-29 14:08 | 40.89055 | 14.30354 | 235 ft | 0 kts | 53° |
| 2026-04-29 14:11 | 40.89055 | 14.30355 | 235 ft | 0 kts | 53° |
| 2026-04-29 14:11 | 40.89067 | 14.30375 | 234 ft | 4 kts | 53° |
| 2026-04-29 14:12 | 40.89097 | 14.30426 | 233 ft | 8 kts | 44° |
| 2026-04-29 14:12 | 40.89162 | 14.30451 | 233 ft | 11 kts | 338° |
| 2026-04-29 14:12 | 40.89218 | 14.30392 | 233 ft | 8 kts | 279° |
| 2026-04-29 14:12 | 40.89182 | 14.30304 | 234 ft | 25 kts | 238° |
| 2026-04-29 14:13 | 40.88941 | 14.29792 | 245 ft | 102 kts | 238° |
| 2026-04-29 14:13 | 40.88448 | 14.28736 | 319 ft | 157 kts | 236° |
| 2026-04-29 14:13 | 40.87912 | 14.27597 | 1101 ft | 146 kts | 230° |
| 2026-04-29 14:13 | 40.87046 | 14.26906 | 1718 ft | 151 kts | 192° |
| 2026-04-29 14:14 | 40.85988 | 14.26761 | 2325 ft | 160 kts | 179° |
| 2026-04-29 14:14 | 40.84824 | 14.26860 | 2829 ft | 176 kts | 176° |
| 2026-04-29 14:14 | 40.83539 | 14.27019 | 3320 ft | 196 kts | 175° |
| 2026-04-29 14:14 | 40.82111 | 14.27203 | 3851 ft | 215 kts | 175° |
| 2026-04-29 14:15 | 40.80576 | 14.27402 | 4603 ft | 224 kts | 175° |
| 2026-04-29 14:15 | 40.79034 | 14.27600 | 5489 ft | 226 kts | 175° |
| 2026-04-29 14:15 | 40.77456 | 14.27800 | 6380 ft | 229 kts | 176° |
| 2026-04-29 14:15 | 40.75927 | 14.27993 | 7217 ft | 231 kts | 176° |
| 2026-04-29 14:16 | 40.74324 | 14.28195 | 8041 ft | 235 kts | 176° |
| 2026-04-29 14:16 | 40.72700 | 14.28398 | 8862 ft | 238 kts | 177° |
| 2026-04-29 14:16 | 40.71038 | 14.28677 | 9671 ft | 243 kts | 171° |
| 2026-04-29 14:16 | 40.69368 | 14.29213 | 10329 ft | 255 kts | 167° |
| 2026-04-29 14:17 | 40.67594 | 14.29885 | 10825 ft | 273 kts | 166° |
| 2026-04-29 14:17 | 40.65723 | 14.30609 | 11300 ft | 291 kts | 166° |
| 2026-04-29 14:17 | 40.63686 | 14.31396 | 11767 ft | 309 kts | 166° |
| 2026-04-29 14:17 | 40.61559 | 14.32212 | 12184 ft | 327 kts | 166° |
| 2026-04-29 14:18 | 40.59269 | 14.32910 | 12603 ft | 341 kts | 177° |
| 2026-04-29 14:18 | 40.56892 | 14.32773 | 13293 ft | 343 kts | 194° |
| 2026-04-29 14:18 | 40.56147 | 14.32543 | 13543 ft | 342 kts | 199° |
| 2026-04-29 14:19 | 40.52459 | 14.30861 | 14785 ft | 347 kts | 203° |
| 2026-04-29 14:19 | 40.50197 | 14.29767 | 15495 ft | 351 kts | 203° |
| 2026-04-29 14:19 | 40.47872 | 14.28650 | 16193 ft | 355 kts | 202° |
| 2026-04-29 14:19 | 40.45524 | 14.27533 | 16869 ft | 360 kts | 202° |
| 2026-04-29 14:20 | 40.43151 | 14.26414 | 17515 ft | 364 kts | 202° |
| 2026-04-29 14:20 | 40.40752 | 14.25287 | 18160 ft | 368 kts | 202° |
| 2026-04-29 14:20 | 40.38315 | 14.24145 | 18805 ft | 371 kts | 202° |
| 2026-04-29 14:20 | 40.35897 | 14.23014 | 19424 ft | 375 kts | 202° |
| 2026-04-29 14:21 | 40.33419 | 14.21857 | 20051 ft | 378 kts | 202° |
| 2026-04-29 14:21 | 40.30915 | 14.20690 | 20665 ft | 381 kts | 202° |
| 2026-04-29 14:21 | 40.28409 | 14.19522 | 21400 ft | 380 kts | 202° |
| 2026-04-29 14:21 | 40.25948 | 14.18379 | 22193 ft | 377 kts | 203° |
| 2026-04-29 14:22 | 40.23460 | 14.17223 | 22957 ft | 375 kts | 203° |
| 2026-04-29 14:22 | 40.21021 | 14.16088 | 23684 ft | 374 kts | 203° |
| 2026-04-29 14:22 | 40.18577 | 14.14951 | 24392 ft | 372 kts | 203° |
| 2026-04-29 14:22 | 40.16129 | 14.13806 | 25083 ft | 371 kts | 203° |
| 2026-04-29 14:23 | 40.13674 | 14.12657 | 25768 ft | 370 kts | 203° |
| 2026-04-29 14:23 | 40.11275 | 14.11535 | 26419 ft | 369 kts | 203° |
| 2026-04-29 14:23 | 40.08852 | 14.10404 | 27061 ft | 367 kts | 203° |
| 2026-04-29 14:23 | 40.06446 | 14.09281 | 27663 ft | 367 kts | 202° |
| 2026-04-29 14:24 | 40.04022 | 14.08153 | 28183 ft | 368 kts | 202° |
| 2026-04-29 14:24 | 40.01619 | 14.07035 | 28667 ft | 371 kts | 202° |
| 2026-04-29 14:24 | 39.99152 | 14.05887 | 28991 ft | 373 kts | 202° |
| 2026-04-29 14:24 | 39.96691 | 14.04743 | 29018 ft | 384 kts | 202° |
| 2026-04-29 14:25 | 39.94098 | 14.03539 | 29018 ft | 398 kts | 202° |
| 2026-04-29 14:25 | 39.91427 | 14.02300 | 29021 ft | 412 kts | 202° |
| 2026-04-29 14:25 | 39.88669 | 14.01022 | 29024 ft | 424 kts | 202° |
| 2026-04-29 14:25 | 39.85847 | 13.99716 | 29018 ft | 436 kts | 202° |
| 2026-04-29 14:26 | 39.82946 | 13.98374 | 29020 ft | 447 kts | 202° |
| 2026-04-29 14:26 | 39.79942 | 13.96988 | 29017 ft | 458 kts | 202° |
| 2026-04-29 14:26 | 39.73838 | 13.94174 | 29018 ft | 473 kts | 202° |
| 2026-04-29 14:27 | 39.67589 | 13.91301 | 29015 ft | 475 kts | 202° |
| 2026-04-29 14:28 | 39.58185 | 13.86987 | 29013 ft | 475 kts | 202° |
| 2026-04-29 14:28 | 39.51949 | 13.84131 | 29011 ft | 475 kts | 202° |
| 2026-04-29 14:29 | 39.45702 | 13.81277 | 29009 ft | 475 kts | 202° |
| 2026-04-29 14:29 | 39.39418 | 13.78409 | 29005 ft | 471 kts | 202° |
| 2026-04-29 14:29 | 39.36367 | 13.77028 | 29005 ft | 450 kts | 202° |
| 2026-04-29 14:30 | 39.33469 | 13.75718 | 28999 ft | 431 kts | 202° |
| 2026-04-29 14:30 | 39.30673 | 13.74454 | 28654 ft | 422 kts | 202° |
| 2026-04-29 14:30 | 39.27910 | 13.73204 | 28242 ft | 414 kts | 202° |
| 2026-04-29 14:30 | 39.25208 | 13.71982 | 27839 ft | 407 kts | 203° |
| 2026-04-29 14:31 | 39.22557 | 13.70784 | 27441 ft | 399 kts | 203° |
| 2026-04-29 14:31 | 39.19966 | 13.69615 | 27143 ft | 390 kts | 203° |
| 2026-04-29 14:31 | 39.17429 | 13.68471 | 26877 ft | 380 kts | 203° |
| 2026-04-29 14:31 | 39.14919 | 13.67340 | 26608 ft | 370 kts | 203° |
| 2026-04-29 14:32 | 39.12532 | 13.66266 | 26344 ft | 363 kts | 203° |
| 2026-04-29 14:32 | 39.10136 | 13.65185 | 26073 ft | 363 kts | 204° |
| 2026-04-29 14:32 | 39.07735 | 13.64101 | 25772 ft | 364 kts | 203° |
| 2026-04-29 14:32 | 39.05314 | 13.63011 | 25391 ft | 365 kts | 203° |
| 2026-04-29 14:33 | 39.02914 | 13.61933 | 24920 ft | 365 kts | 203° |
| 2026-04-29 14:33 | 39.00499 | 13.60851 | 24419 ft | 365 kts | 203° |
| 2026-04-29 14:33 | 38.98076 | 13.59766 | 23909 ft | 365 kts | 203° |
| 2026-04-29 14:33 | 38.95668 | 13.58686 | 23380 ft | 365 kts | 203° |
| 2026-04-29 14:34 | 38.93277 | 13.57616 | 22851 ft | 365 kts | 203° |
| 2026-04-29 14:34 | 38.90881 | 13.56543 | 22304 ft | 366 kts | 202° |
| 2026-04-29 14:34 | 38.88417 | 13.55442 | 21719 ft | 368 kts | 203° |
| 2026-04-29 14:34 | 38.86120 | 13.54071 | 21081 ft | 366 kts | 216° |
| 2026-04-29 14:35 | 38.84163 | 13.51945 | 20421 ft | 365 kts | 231° |
| 2026-04-29 14:35 | 38.82676 | 13.49326 | 19888 ft | 362 kts | 239° |
| 2026-04-29 14:35 | 38.81316 | 13.46617 | 19422 ft | 359 kts | 239° |
| 2026-04-29 14:35 | 38.79976 | 13.43927 | 18970 ft | 357 kts | 239° |
| 2026-04-29 14:36 | 38.78637 | 13.41249 | 18517 ft | 355 kts | 239° |
| 2026-04-29 14:36 | 38.77316 | 13.38619 | 18073 ft | 353 kts | 239° |
| 2026-04-29 14:36 | 38.75972 | 13.35950 | 17610 ft | 350 kts | 239° |
| 2026-04-29 14:36 | 38.74656 | 13.33345 | 17180 ft | 349 kts | 239° |
| 2026-04-29 14:37 | 38.73346 | 13.30757 | 16747 ft | 347 kts | 239° |
| 2026-04-29 14:37 | 38.72026 | 13.28151 | 16305 ft | 345 kts | 239° |
| 2026-04-29 14:37 | 38.70721 | 13.25575 | 15871 ft | 343 kts | 239° |
| 2026-04-29 14:37 | 38.69430 | 13.23033 | 15475 ft | 340 kts | 239° |
| 2026-04-29 14:38 | 38.68144 | 13.20501 | 15134 ft | 336 kts | 238° |
| 2026-04-29 14:38 | 38.66878 | 13.18010 | 14794 ft | 333 kts | 239° |
| 2026-04-29 14:38 | 38.65614 | 13.15526 | 14426 ft | 332 kts | 238° |
| 2026-04-29 14:38 | 38.64345 | 13.13033 | 14019 ft | 329 kts | 238° |
| 2026-04-29 14:39 | 38.63105 | 13.10598 | 13606 ft | 328 kts | 238° |
| 2026-04-29 14:39 | 38.61861 | 13.08160 | 13178 ft | 326 kts | 238° |
| 2026-04-29 14:39 | 38.60625 | 13.05737 | 12735 ft | 324 kts | 238° |
| 2026-04-29 14:39 | 38.59398 | 13.03336 | 12304 ft | 322 kts | 238° |
| 2026-04-29 14:40 | 38.58343 | 13.01271 | 11945 ft | 320 kts | 238° |
| 2026-04-29 14:40 | 38.57141 | 12.98920 | 11516 ft | 318 kts | 238° |
| 2026-04-29 14:40 | 38.55921 | 12.96536 | 11075 ft | 315 kts | 238° |
| 2026-04-29 14:40 | 38.54726 | 12.94203 | 10671 ft | 313 kts | 238° |
| 2026-04-29 14:41 | 38.53534 | 12.91876 | 10353 ft | 305 kts | 237° |
| 2026-04-29 14:41 | 38.52402 | 12.89672 | 10239 ft | 292 kts | 237° |
| 2026-04-29 14:41 | 38.51304 | 12.87534 | 10107 ft | 280 kts | 237° |
| 2026-04-29 14:41 | 38.50255 | 12.85493 | 9974 ft | 270 kts | 237° |
| 2026-04-29 14:42 | 38.49213 | 12.83466 | 9596 ft | 269 kts | 237° |
| 2026-04-29 14:42 | 38.48184 | 12.81463 | 9230 ft | 268 kts | 237° |
| 2026-04-29 14:42 | 38.47181 | 12.79514 | 8892 ft | 266 kts | 237° |
| 2026-04-29 14:42 | 38.46141 | 12.77494 | 8546 ft | 264 kts | 237° |
| 2026-04-29 14:43 | 38.45129 | 12.75532 | 8216 ft | 263 kts | 237° |
| 2026-04-29 14:43 | 38.44093 | 12.73623 | 8073 ft | 253 kts | 228° |
| 2026-04-29 14:43 | 38.43055 | 12.72631 | 7990 ft | 245 kts | 204° |
| 2026-04-29 14:43 | 38.41374 | 12.72260 | 7986 ft | 250 kts | 176° |
| 2026-04-29 14:44 | 38.39706 | 12.72918 | 7994 ft | 256 kts | 157° |
| 2026-04-29 14:44 | 38.38093 | 12.73906 | 7986 ft | 256 kts | 156° |
| 2026-04-29 14:44 | 38.36489 | 12.74881 | 7986 ft | 251 kts | 157° |
| 2026-04-29 14:44 | 38.34927 | 12.75822 | 7826 ft | 243 kts | 157° |
| 2026-04-29 14:45 | 38.33385 | 12.76742 | 7554 ft | 239 kts | 157° |
| 2026-04-29 14:45 | 38.31879 | 12.77636 | 7204 ft | 235 kts | 157° |
| 2026-04-29 14:45 | 38.31386 | 12.77928 | 7082 ft | 233 kts | 157° |
| 2026-04-29 14:45 | 38.29851 | 12.78838 | 6704 ft | 228 kts | 156° |
| 2026-04-29 14:46 | 38.28397 | 12.79699 | 6351 ft | 227 kts | 156° |
| 2026-04-29 14:46 | 38.27238 | 12.80385 | 6135 ft | 223 kts | 156° |
| 2026-04-29 14:46 | 38.25835 | 12.81214 | 5758 ft | 222 kts | 156° |
| 2026-04-29 14:47 | 38.24437 | 12.82036 | 5375 ft | 221 kts | 156° |
| 2026-04-29 14:47 | 38.23002 | 12.82825 | 5039 ft | 217 kts | 157° |
| 2026-04-29 14:47 | 38.22068 | 12.83326 | 4811 ft | 218 kts | 157° |
| 2026-04-29 14:48 | 38.21048 | 12.83874 | 4587 ft | 219 kts | 157° |
| 2026-04-29 14:48 | 38.20195 | 12.84333 | 4412 ft | 219 kts | 157° |
| 2026-04-29 14:48 | 38.18773 | 12.85099 | 4124 ft | 219 kts | 156° |
| 2026-04-29 14:49 | 38.17377 | 12.85854 | 3850 ft | 219 kts | 156° |
| 2026-04-29 14:49 | 38.15964 | 12.86618 | 3611 ft | 216 kts | 156° |
| 2026-04-29 14:49 | 38.14623 | 12.87342 | 3587 ft | 203 kts | 156° |
| 2026-04-29 14:49 | 38.13345 | 12.88034 | 3545 ft | 194 kts | 156° |
| 2026-04-29 14:50 | 38.12107 | 12.88704 | 3428 ft | 187 kts | 155° |
| 2026-04-29 14:50 | 38.11101 | 12.89682 | 3214 ft | 183 kts | 117° |
| 2026-04-29 14:50 | 38.10977 | 12.91253 | 2969 ft | 187 kts | 70° |
| 2026-04-29 14:50 | 38.11617 | 12.92726 | 2799 ft | 187 kts | 59° |
| 2026-04-29 14:51 | 38.12289 | 12.94134 | 2531 ft | 186 kts | 62° |
| 2026-04-29 14:51 | 38.12889 | 12.95558 | 2215 ft | 178 kts | 64° |
| 2026-04-29 14:51 | 38.13409 | 12.96921 | 1995 ft | 165 kts | 66° |
| 2026-04-29 14:51 | 38.13878 | 12.98226 | 1780 ft | 160 kts | 66° |
| 2026-04-29 14:52 | 38.14326 | 12.99512 | 1568 ft | 155 kts | 67° |
| 2026-04-29 14:52 | 38.14741 | 13.00726 | 1356 ft | 144 kts | 67° |
| 2026-04-29 14:52 | 38.15126 | 13.01866 | 1157 ft | 133 kts | 67° |
| 2026-04-29 14:52 | 38.15495 | 13.02944 | 1009 ft | 132 kts | 66° |
| 2026-04-29 14:53 | 38.15873 | 13.04001 | 846 ft | 131 kts | 64° |
| 2026-04-29 14:53 | 38.16254 | 13.05066 | 666 ft | 131 kts | 66° |
| 2026-04-29 14:53 | 38.16598 | 13.06123 | 501 ft | 130 kts | 67° |
| 2026-04-29 14:53 | 38.16945 | 13.07192 | 349 ft | 129 kts | 65° |
| 2026-04-29 14:54 | 38.17300 | 13.08251 | 160 ft | 128 kts | 65° |
| 2026-04-29 14:54 | 38.17641 | 13.09274 | 57 ft | 119 kts | 65° |
| 2026-04-29 14:54 | 38.17912 | 13.10078 | 79 ft | 73 kts | 66° |
| 2026-04-29 14:54 | 38.18065 | 13.10532 | 87 ft | 48 kts | 68° |
| 2026-04-29 14:55 | 38.18143 | 13.10748 | 88 ft | 14 kts | 31° |
| 2026-04-29 14:55 | 38.18168 | 13.10704 | 86 ft | 7 kts | 284° |
| 2026-04-29 14:55 | 38.18179 | 13.10623 | 85 ft | 10 kts | 275° |
| 2026-04-29 14:55 | 38.18190 | 13.10507 | 79 ft | 14 kts | 277° |
| 2026-04-29 14:56 | 38.18201 | 13.10425 | 75 ft | 9 kts | 287° |
| 2026-04-29 14:56 | 38.18257 | 13.10363 | 71 ft | 9 kts | 342° |
| 2026-04-29 14:56 | 38.18308 | 13.10409 | 71 ft | 10 kts | 65° |
| 2026-04-29 14:56 | 38.18340 | 13.10477 | 73 ft | 8 kts | 24° |
| 2026-04-29 14:57 | 38.18401 | 13.10506 | 73 ft | 9 kts | 21° |
| 2026-04-29 14:57 | 38.18452 | 13.10556 | 74 ft | 9 kts | 65° |
| 2026-04-29 14:57 | 38.18454 | 13.10611 | 75 ft | 5 kts | 147° |
| 2026-04-29 14:57 | 38.18431 | 13.10624 | 76 ft | 2 kts | 156° |
| 2026-04-29 14:58 | 38.18418 | 13.10632 | 77 ft | 1 kts | 157° |
| 2026-04-29 14:58 | 38.18412 | 13.10635 | 77 ft | 0 kts | 156° |
| 2026-04-29 14:58 | 38.18409 | 13.10636 | 77 ft | 0 kts | 156° |
| 2026-04-29 14:58 | 38.18408 | 13.10636 | 77 ft | 0 kts | 156° |
| 2026-04-29 14:59 | 38.18407 | 13.10637 | 77 ft | 0 kts | 156° |